Time;durP1;ratioP1;P1;durP2;ratioP2;P2;SDS_P1;SDS_P2;PMS_P1;PMS_P2;Temp;Humidity;BMP_temperature;BMP_pressure;BME280_temperature;BME280_humidity;BME280_pressure;Samples;Min_cycle;Max_cycle;Signal;HPM_P1;HPM_P2
2022/04/18 00:00:25;;;;;;;0.67;0.67;;;7.20;51.20;6.60;98641.00;;;;5098281;28;20292;-78
2022/04/18 00:02:52;;;;;;;0.90;0.90;;;7.20;51.40;6.40;98641.00;;;;5116105;28;20214;-79
2022/04/18 00:05:18;;;;;;;0.80;0.80;;;7.10;52.10;6.60;98631.00;;;;5116105;28;20220;-78
2022/04/18 00:07:45;;;;;;;1.30;1.20;;;7.20;51.60;6.40;98629.00;;;;5116033;28;20259;-78
2022/04/18 00:10:12;;;;;;;0.80;0.80;;;7.10;51.20;6.40;98634.00;;;;5116069;28;20202;-78
2022/04/18 00:12:42;;;;;;;1.00;1.00;;;7.00;52.00;6.40;98620.00;;;;5116043;28;20236;-78
2022/04/18 00:15:09;;;;;;;0.70;0.70;;;7.00;52.10;6.30;98632.00;;;;5116103;28;20239;-78
2022/04/18 00:17:36;;;;;;;1.40;1.30;;;6.90;51.70;6.20;98630.00;;;;5116012;28;20664;-78
2022/04/18 00:20:03;;;;;;;1.07;1.07;;;6.80;52.00;6.30;98620.00;;;;5115893;28;20228;-79
2022/04/18 00:22:30;;;;;;;0.80;0.80;;;6.90;51.80;6.20;98614.00;;;;5115900;28;20209;-78
2022/04/18 00:24:57;;;;;;;0.67;0.67;;;6.80;51.40;6.10;98616.00;;;;5115745;28;20226;-78
2022/04/18 00:27:24;;;;;;;0.60;0.60;;;6.80;51.70;6.20;98620.00;;;;5115971;28;20212;-78
2022/04/18 00:29:53;;;;;;;1.33;1.30;;;6.70;52.60;6.00;98626.00;;;;5115797;28;20633;-79
2022/04/18 00:32:20;;;;;;;1.10;1.10;;;6.70;52.60;6.10;98623.00;;;;5115782;28;20207;-78
2022/04/18 00:34:46;;;;;;;0.80;0.80;;;6.70;53.50;5.90;98618.00;;;;5115894;28;20316;-78
2022/04/18 00:37:13;;;;;;;1.10;1.10;;;6.60;53.50;6.00;98618.00;;;;5115658;28;20292;-78
2022/04/18 00:39:39;;;;;;;0.87;0.87;;;6.60;53.50;5.90;98619.00;;;;5115662;28;20639;-78
2022/04/18 00:42:06;;;;;;;1.43;0.87;;;6.60;53.20;6.00;98611.00;;;;5115493;28;20255;-78
2022/04/18 00:44:35;;;;;;;0.73;0.73;;;6.60;53.60;5.90;98615.00;;;;5115518;28;20218;-78
2022/04/18 00:47:02;;;;;;;1.27;1.27;;;6.50;53.20;5.80;98614.00;;;;5114645;28;20198;-78
2022/04/18 00:49:33;;;;;;;2.27;1.30;;;6.60;53.60;5.80;98619.00;;;;5115474;28;20643;-78
2022/04/18 00:52:01;;;;;;;0.90;0.90;;;6.50;53.70;5.60;98609.00;;;;5115392;28;20194;-79
2022/04/18 00:54:28;;;;;;;1.73;1.63;;;6.40;54.00;5.60;98609.00;;;;5115253;28;20218;-78
2022/04/18 00:56:54;;;;;;;1.17;1.17;;;6.30;54.30;5.70;98617.00;;;;5115266;28;20269;-78
2022/04/18 00:59:22;;;;;;;0.73;0.73;;;6.30;54.50;5.60;98604.00;;;;5097127;28;20217;-78
2022/04/18 01:01:50;;;;;;;1.07;0.87;;;6.30;54.60;5.60;98596.00;;;;5097328;28;20206;-78
2022/04/18 01:04:17;;;;;;;0.70;0.70;;;6.30;54.00;5.60;98597.00;;;;5115095;28;20227;-78
2022/04/18 01:06:43;;;;;;;0.70;0.70;;;6.20;54.80;5.50;98594.00;;;;5097189;28;20213;-78
2022/04/18 01:09:12;;;;;;;1.00;1.00;;;6.20;54.50;5.40;98602.00;;;;5115141;28;20553;-77
2022/04/18 01:11:39;;;;;;;1.40;1.30;;;6.20;55.00;5.50;98600.00;;;;5115152;28;20639;-78
2022/04/18 01:14:06;;;;;;;1.30;1.10;;;6.10;54.80;5.40;98593.00;;;;5115094;28;20246;-78
2022/04/18 01:16:33;;;;;;;2.73;0.93;;;6.10;55.10;5.50;98596.00;;;;5115138;28;20202;-78
2022/04/18 01:19:00;;;;;;;1.00;1.00;;;6.10;55.20;5.30;98589.00;;;;5115048;28;20247;-78
2022/04/18 01:21:30;;;;;;;0.90;0.90;;;6.10;54.50;5.30;98591.00;;;;5114923;28;20308;-78
2022/04/18 01:23:59;;;;;;;1.03;1.03;;;6.00;54.80;5.20;98589.00;;;;5114879;28;20193;-79
2022/04/18 01:29:11;;;;;;;2.43;0.83;;;5.90;55.80;5.30;98582.00;;;;5113740;28;20233;-79
2022/04/18 01:31:39;;;;;;;1.00;1.00;;;5.90;55.30;5.20;98582.00;;;;5097061;28;20263;-79
2022/04/18 01:34:08;;;;;;;1.50;1.40;;;5.80;55.30;5.20;98576.00;;;;5114652;28;20363;-79
2022/04/18 01:36:35;;;;;;;0.77;0.77;;;5.80;55.70;5.10;98571.00;;;;5114675;28;20280;-78
2022/04/18 01:39:02;;;;;;;0.93;0.93;;;5.80;55.70;5.20;98567.00;;;;5096981;28;20292;-79
2022/04/18 01:41:28;;;;;;;0.77;0.77;;;5.80;55.60;5.20;98567.00;;;;5114629;28;20292;-79
2022/04/18 01:43:55;;;;;;;1.47;1.10;;;5.80;55.30;5.20;98571.00;;;;5115016;28;20217;-80
2022/04/18 01:46:22;;;;;;;0.70;0.70;;;5.90;55.30;5.20;98568.00;;;;5114716;28;20289;-79
2022/04/18 01:48:51;;;;;;;0.80;0.80;;;5.80;55.00;4.90;98568.00;;;;5114745;28;20306;-78
2022/04/18 01:51:18;;;;;;;0.97;0.97;;;5.70;55.50;5.10;98569.00;;;;5115157;28;20236;-77
2022/04/18 01:53:48;;;;;;;0.90;0.90;;;5.70;55.80;5.10;98571.00;;;;5114527;28;20230;-77
2022/04/18 01:56:17;;;;;;;0.90;0.90;;;5.70;55.70;5.00;98558.00;;;;5096803;28;20198;-78
2022/04/18 01:58:48;;;;;;;1.13;1.13;;;5.70;55.50;5.10;98561.00;;;;5114670;28;20212;-78
2022/04/18 02:01:15;;;;;;;0.70;0.70;;;5.70;56.10;5.00;98563.00;;;;5096441;28;20234;-77
2022/04/18 02:03:44;;;;;;;0.70;0.70;;;5.70;55.80;4.80;98531.00;;;;5114351;28;20272;-78
2022/04/18 02:06:13;;;;;;;0.90;0.90;;;5.70;55.90;4.90;98557.00;;;;5114235;28;20224;-77
2022/04/18 02:08:40;;;;;;;0.90;0.90;;;5.60;55.80;4.60;98560.00;;;;5114479;28;20225;-78
2022/04/18 02:11:07;;;;;;;1.53;1.07;;;5.50;56.10;4.80;98551.00;;;;5114131;28;20684;-78
2022/04/18 02:13:34;;;;;;;0.80;0.80;;;5.40;56.20;4.80;98539.00;;;;5114162;28;20245;-78
2022/04/18 02:16:00;;;;;;;1.90;1.03;;;5.50;56.00;4.80;98547.00;;;;5114504;28;20198;-78
2022/04/18 02:18:27;;;;;;;0.60;0.60;;;5.50;56.00;4.90;98544.00;;;;5096826;28;20229;-78
2022/04/18 02:20:55;;;;;;;0.90;0.90;;;5.50;56.40;4.90;98546.00;;;;5114702;28;20198;-78
2022/04/18 02:23:22;;;;;;;0.70;0.70;;;5.50;56.60;4.90;98545.00;;;;5096866;28;20723;-78
2022/04/18 02:25:48;;;;;;;0.60;0.60;;;5.50;55.70;4.70;98544.00;;;;5114132;28;20213;-77
2022/04/18 02:28:16;;;;;;;1.20;1.00;;;5.40;55.50;4.70;98546.00;;;;5096396;28;20272;-79
2022/04/18 02:30:42;;;;;;;1.03;1.03;;;5.40;56.50;4.50;98541.00;;;;5114152;28;20262;-78
2022/04/18 02:33:11;;;;;;;1.57;1.47;;;5.30;56.70;4.50;98535.00;;;;5114096;28;20194;-78
2022/04/18 02:35:40;;;;;;;1.03;1.03;;;5.20;57.00;4.40;98536.00;;;;5114013;28;20216;-77
2022/04/18 02:38:09;;;;;;;1.23;1.13;;;5.10;57.60;4.40;98536.00;;;;5113907;28;20222;-78
2022/04/18 02:40:35;;;;;;;1.17;1.07;;;5.20;56.90;4.50;98544.00;;;;5113975;28;20306;-79
2022/04/18 02:43:02;;;;;;;0.80;0.80;;;5.20;57.10;4.50;98521.00;;;;5113882;28;20225;-77
2022/04/18 02:45:31;;;;;;;0.83;0.83;;;5.20;56.90;4.50;98522.00;;;;5113799;28;20210;-78
2022/04/18 02:47:58;;;;;;;1.10;1.10;;;5.20;57.60;4.50;98520.00;;;;5113903;28;20186;-78
2022/04/18 02:50:24;;;;;;;1.03;0.90;;;5.20;57.20;4.40;98521.00;;;;5095802;28;20202;-78
2022/04/18 02:52:51;;;;;;;0.80;0.80;;;5.10;56.90;4.30;98518.00;;;;5095902;28;20226;-78
2022/04/18 02:55:17;;;;;;;1.03;1.03;;;5.00;56.70;4.10;98525.00;;;;5113655;28;20213;-78
2022/04/18 02:57:44;;;;;;;0.80;0.80;;;4.90;57.00;4.00;98513.00;;;;5113801;28;20320;-78
2022/04/18 03:00:14;;;;;;;0.83;0.83;;;4.80;57.60;4.00;98496.00;;;;5113732;28;20194;-78
2022/04/18 03:02:44;;;;;;;0.80;0.80;;;4.70;58.10;4.00;98512.00;;;;5113640;28;20225;-78
2022/04/18 03:05:12;;;;;;;0.60;0.60;;;4.70;58.70;4.00;98501.00;;;;5095814;28;20217;-79
2022/04/18 03:07:39;;;;;;;0.83;0.83;;;4.80;57.90;3.90;98504.00;;;;5095621;28;20245;-77
2022/04/18 03:10:07;;;;;;;1.27;1.17;;;4.70;57.70;3.80;98509.00;;;;5114483;28;20229;-77
2022/04/18 03:12:34;;;;;;;1.80;1.70;;;4.60;58.30;4.10;98506.00;;;;5099105;28;20205;-78
2022/04/18 03:15:01;;;;;;;3.80;0.90;;;4.70;59.30;3.90;98502.00;;;;5117047;28;20256;-78
2022/04/18 03:17:27;;;;;;;1.03;1.03;;;4.60;57.40;3.70;98502.00;;;;5116938;28;20194;-78
2022/04/18 03:19:54;;;;;;;1.07;1.07;;;4.60;57.90;3.60;98506.00;;;;5098909;28;20218;-78
2022/04/18 03:22:21;;;;;;;0.80;0.80;;;4.40;58.60;3.80;98500.00;;;;5099043;28;20648;-78
2022/04/18 03:24:48;;;;;;;0.67;0.67;;;4.50;59.70;3.80;98509.00;;;;5116849;28;20308;-78
2022/04/18 03:27:16;;;;;;;0.93;0.93;;;4.50;58.70;3.80;98501.00;;;;5116818;28;20203;-79
2022/04/18 03:29:45;;;;;;;1.20;1.20;;;4.50;58.60;3.70;98499.00;;;;5116734;28;20213;-79
2022/04/18 03:32:12;;;;;;;1.07;1.07;;;4.40;58.30;3.70;98486.00;;;;5116802;28;20609;-78
2022/04/18 03:34:38;;;;;;;0.83;0.83;;;4.40;59.00;3.80;98462.00;;;;5116620;28;20297;-79
2022/04/18 03:39:54;;;;;;;1.00;1.00;;;4.50;58.80;3.70;98496.00;;;;5116580;28;20202;-78
2022/04/18 03:42:32;;;;;;;1.00;0.90;;;4.40;59.00;3.80;98471.00;;;;5116483;28;20267;-77
2022/04/18 03:45:02;;;;;;;1.17;1.10;;;4.50;58.80;3.80;98463.00;;;;5116595;28;20205;-78
2022/04/18 03:47:29;;;;;;;1.27;1.17;;;4.40;58.20;3.80;98491.00;;;;5116453;28;20270;-78
2022/04/18 03:49:56;;;;;;;0.87;0.87;;;4.50;58.60;3.60;98486.00;;;;5116537;28;20229;-79
2022/04/18 03:52:24;;;;;;;1.10;1.10;;;4.40;58.40;3.70;98485.00;;;;5116305;28;20256;-79
2022/04/18 03:54:51;;;;;;;1.60;1.23;;;4.40;58.50;3.70;98494.00;;;;5116373;28;20250;-77
2022/04/18 03:57:20;;;;;;;0.70;0.70;;;4.40;58.90;3.70;98493.00;;;;5116681;28;20706;-79
2022/04/18 03:59:47;;;;;;;0.70;0.70;;;4.40;58.70;3.60;98490.00;;;;5116373;28;20222;-79
2022/04/18 04:02:14;;;;;;;0.80;0.80;;;4.40;58.00;3.60;98501.00;;;;5116326;28;20676;-79
2022/04/18 04:04:42;;;;;;;0.77;0.77;;;4.30;58.40;3.70;98495.00;;;;5116254;28;20697;-78
2022/04/18 04:07:11;;;;;;;1.13;1.13;;;4.40;58.70;3.60;98494.00;;;;5116684;28;20206;-79
2022/04/18 04:09:38;;;;;;;0.90;0.90;;;4.30;58.50;3.60;98488.00;;;;5098667;28;20257;-78
2022/04/18 04:12:06;;;;;;;0.90;0.90;;;4.30;59.10;3.50;98488.00;;;;5115982;28;20190;-78
2022/04/18 04:14:34;;;;;;;0.73;0.73;;;4.30;59.20;3.50;98480.00;;;;5116098;28;20305;-78
2022/04/18 04:17:03;;;;;;;0.90;0.90;;;4.20;59.70;3.40;98480.00;;;;5116375;28;20194;-78
2022/04/18 04:19:29;;;;;;;1.00;1.00;;;4.20;59.50;3.50;98481.00;;;;5116038;28;20289;-78
2022/04/18 04:21:56;;;;;;;0.60;0.60;;;4.20;59.40;3.50;98476.00;;;;5114788;28;20285;-78
2022/04/18 04:24:23;;;;;;;1.30;1.30;;;4.20;58.80;3.60;98455.00;;;;5115872;28;20194;-77
2022/04/18 04:26:52;;;;;;;1.30;1.30;;;4.20;58.70;3.30;98479.00;;;;5115869;28;20229;-78
2022/04/18 04:29:19;;;;;;;0.97;0.97;;;4.10;58.50;3.30;98478.00;;;;5115975;28;20194;-77
2022/04/18 04:31:47;;;;;;;0.73;0.73;;;4.10;59.20;3.30;98477.00;;;;5097789;28;20236;-77
2022/04/18 04:34:16;;;;;;;1.03;1.03;;;4.10;59.30;3.30;98427.00;;;;5115692;28;20645;-78
2022/04/18 04:36:43;;;;;;;0.67;0.67;;;4.00;59.30;3.40;98478.00;;;;5097704;28;20220;-78
2022/04/18 04:39:10;;;;;;;0.80;0.80;;;4.10;59.30;3.40;98446.00;;;;5115805;28;20205;-77
2022/04/18 04:41:37;;;;;;;0.90;0.87;;;4.10;59.50;3.50;98476.00;;;;5097934;28;20225;-77
2022/04/18 04:44:07;;;;;;;0.90;0.90;;;4.10;60.40;3.40;98465.00;;;;5115527;28;20264;-78
2022/04/18 04:46:35;;;;;;;1.30;1.20;;;4.20;59.20;3.10;98470.00;;;;5115614;28;20206;-78
2022/04/18 04:49:02;;;;;;;1.27;1.17;;;4.00;58.80;2.90;98479.00;;;;5097579;28;20333;-76
2022/04/18 04:51:29;;;;;;;0.90;0.90;;;3.80;59.90;2.90;98475.00;;;;5115642;28;20194;-78
2022/04/18 04:53:56;;;;;;;1.90;1.30;;;3.80;59.70;3.20;98464.00;;;;5115323;28;20205;-79
2022/04/18 04:56:24;;;;;;;0.70;0.70;;;3.80;60.90;2.90;98471.00;;;;5115626;28;20263;-78
2022/04/18 04:58:50;;;;;;;0.80;0.80;;;3.80;61.20;3.00;98472.00;;;;5115449;28;20198;-78
2022/04/18 05:01:18;;;;;;;1.20;1.20;;;3.80;61.30;3.30;98468.00;;;;5115163;28;20269;-78
2022/04/18 05:03:45;;;;;;;0.80;0.80;;;3.90;60.80;3.40;98464.00;;;;5115293;28;20589;-77
2022/04/18 05:06:12;;;;;;;0.80;0.80;;;4.00;60.50;3.20;98464.00;;;;5115318;28;20298;-78
2022/04/18 05:08:39;;;;;;;1.20;1.20;;;3.90;59.90;3.20;98467.00;;;;5097297;28;20605;-77
2022/04/18 05:11:05;;;;;;;0.97;0.97;;;3.90;60.50;3.30;98465.00;;;;5115097;28;20544;-78
2022/04/18 05:13:34;;;;;;;1.47;1.47;;;4.00;60.10;3.30;98468.00;;;;5115181;28;20285;-77
2022/04/18 05:16:01;;;;;;;1.00;1.00;;;4.00;60.90;3.30;98469.00;;;;5115060;28;20228;-79
2022/04/18 05:18:28;;;;;;;1.23;1.23;;;4.00;60.60;3.30;98467.00;;;;5115096;28;20194;-77
2022/04/18 05:20:54;;;;;;;1.90;1.80;;;4.00;60.50;3.20;98465.00;;;;5097060;28;20655;-77
2022/04/18 05:23:21;;;;;;;0.70;0.70;;;4.00;60.20;3.20;98468.00;;;;5114946;28;20274;-80
2022/04/18 05:25:47;;;;;;;0.70;0.70;;;4.00;60.80;3.40;98476.00;;;;5115100;28;20288;-78
2022/04/18 05:28:14;;;;;;;0.97;0.97;;;4.10;61.10;3.40;98473.00;;;;5096951;28;20736;-78
2022/04/18 05:30:41;;;;;;;0.80;0.80;;;4.10;61.80;3.50;98475.00;;;;5114991;28;20250;-78
2022/04/18 05:33:08;;;;;;;0.80;0.80;;;4.20;60.90;3.60;98471.00;;;;5114535;28;20194;-76
2022/04/18 05:35:35;;;;;;;0.90;0.90;;;4.30;61.00;3.70;98479.00;;;;5114979;28;20217;-78
2022/04/18 05:38:01;;;;;;;2.07;1.90;;;4.30;61.10;3.70;98479.00;;;;5114930;28;20217;-77
2022/04/18 05:40:28;;;;;;;0.80;0.80;;;4.40;60.10;3.90;98472.00;;;;5115180;28;20558;-79
2022/04/18 05:42:54;;;;;;;0.70;0.70;;;4.50;60.00;4.00;98475.00;;;;5115345;28;20289;-79
2022/04/18 05:45:21;;;;;;;0.90;0.90;;;4.60;59.90;3.90;98475.00;;;;5115285;28;20228;-79
2022/04/18 05:47:50;;;;;;;1.13;1.13;;;4.60;59.90;3.80;98476.00;;;;5115208;28;20200;-77
2022/04/18 05:50:20;;;;;;;0.87;0.87;;;4.60;60.70;4.00;98479.00;;;;5115292;28;20222;-78
2022/04/18 05:52:47;;;;;;;1.47;1.37;;;4.70;60.40;4.20;98478.00;;;;5114699;28;20231;-78
2022/04/18 05:55:14;;;;;;;1.10;1.10;;;4.80;60.60;4.00;98480.00;;;;5114496;28;20278;-79
2022/04/18 05:57:41;;;;;;;1.13;1.13;;;4.80;60.00;4.20;98481.00;;;;5114428;28;20697;-79
2022/04/18 06:00:08;;;;;;;2.13;2.03;;;4.90;59.60;4.30;98485.00;;;;5114378;28;20191;-79
2022/04/18 06:02:35;;;;;;;1.53;1.43;;;5.00;59.10;4.30;98483.00;;;;5114388;28;20248;-79
2022/04/18 06:05:01;;;;;;;1.17;1.17;;;5.00;58.70;4.40;98472.00;;;;5114393;28;20657;-78
2022/04/18 06:07:28;;;;;;;0.97;0.97;;;5.10;58.60;4.50;98471.00;;;;5114367;28;20310;-77
2022/04/18 06:09:57;;;;;;;1.83;1.73;;;5.20;58.90;4.50;98474.00;;;;5096336;28;20280;-78
2022/04/18 06:12:27;;;;;;;1.43;1.40;;;5.30;59.60;4.70;98468.00;;;;5114241;28;20537;-79
2022/04/18 06:14:54;;;;;;;1.77;1.53;;;5.40;59.60;4.90;98471.00;;;;5114398;28;20281;-79
2022/04/18 06:17:20;;;;;;;0.90;0.90;;;5.50;59.30;5.00;98475.00;;;;5114178;28;20202;-79
2022/04/18 06:19:47;;;;;;;1.30;1.20;;;5.60;57.90;4.80;98479.00;;;;5096271;28;20608;-79
2022/04/18 06:22:14;;;;;;;1.70;1.60;;;5.50;57.20;4.50;98478.00;;;;5114215;28;20210;-79
2022/04/18 06:24:41;;;;;;;1.03;1.03;;;5.40;57.60;4.70;98477.00;;;;5114030;28;20274;-78
2022/04/18 06:27:08;;;;;;;4.63;1.53;;;5.50;58.10;5.00;98479.00;;;;5114241;28;20277;-78
2022/04/18 06:29:37;;;;;;;1.10;1.07;;;5.70;58.60;5.20;98477.00;;;;5114074;28;20322;-79
2022/04/18 06:32:04;;;;;;;1.00;1.00;;;5.80;58.50;5.40;98472.00;;;;5096094;28;20197;-79
2022/04/18 06:34:33;;;;;;;1.07;1.07;;;6.00;57.80;5.40;98468.00;;;;5113917;28;20640;-79
2022/04/18 06:36:59;;;;;;;0.80;0.80;;;6.10;57.60;5.70;98473.00;;;;5113968;28;20203;-79
2022/04/18 06:39:26;;;;;;;1.33;1.20;;;6.30;57.70;5.90;98459.00;;;;5114069;28;20206;-79
2022/04/18 06:41:55;;;;;;;1.10;1.10;;;6.50;57.20;6.10;98476.00;;;;5114075;28;20217;-79
2022/04/18 06:44:23;;;;;;;1.67;1.57;;;6.70;56.80;6.40;98462.00;;;;5114325;28;20190;-79
2022/04/18 06:46:49;;;;;;;0.70;0.70;;;6.90;54.90;6.50;98472.00;;;;5099449;28;20594;-78
2022/04/18 06:49:16;;;;;;;0.60;0.60;;;7.00;54.00;6.60;98472.00;;;;5117502;28;20286;-79
2022/04/18 06:51:45;;;;;;;0.80;0.80;;;7.20;53.80;6.60;98467.00;;;;5117274;28;20204;-78
2022/04/18 06:54:11;;;;;;;1.53;1.43;;;7.30;53.10;6.80;98469.00;;;;5106207;28;20225;-78
2022/04/18 06:59:25;;;;;;;0.80;0.80;;;7.50;52.10;6.90;98466.00;;;;5128001;28;20224;-78
2022/04/18 07:01:52;;;;;;;0.60;0.60;;;7.60;51.90;7.20;98468.00;;;;5118992;28;20672;-78
2022/04/18 07:04:19;;;;;;;0.87;0.87;;;7.70;51.20;7.30;98463.00;;;;5117782;28;20244;-79
2022/04/18 07:06:45;;;;;;;1.03;1.00;;;7.90;49.80;7.30;98468.00;;;;5117562;28;20201;-78
2022/04/18 07:09:12;;;;;;;0.87;0.87;;;8.00;49.10;7.60;98464.00;;;;5117081;28;20314;-78
2022/04/18 07:11:40;;;;;;;0.80;0.80;;;8.10;48.10;7.60;98456.00;;;;5117165;28;20645;-79
2022/04/18 07:14:07;;;;;;;1.13;1.03;;;8.20;48.10;7.60;98460.00;;;;5117086;28;20218;-78
2022/04/18 07:16:34;;;;;;;0.80;0.80;;;8.30;47.10;7.80;98463.00;;;;5117183;28;20213;-79
2022/04/18 07:19:01;;;;;;;0.90;0.90;;;8.40;47.20;7.90;98466.00;;;;5098501;28;20531;-78
2022/04/18 07:21:28;;;;;;;0.90;0.90;;;8.50;46.50;8.00;98463.00;;;;5116908;28;20217;-78
2022/04/18 07:23:54;;;;;;;1.33;1.33;;;8.60;46.40;8.10;98472.00;;;;5116788;28;20651;-78
2022/04/18 07:26:21;;;;;;;0.80;0.80;;;8.70;45.60;8.20;98467.00;;;;5116836;28;20288;-78
2022/04/18 07:28:48;;;;;;;5.87;2.00;;;8.80;44.70;8.30;98463.00;;;;5116740;28;20189;-78
2022/04/18 07:31:14;;;;;;;1.70;1.60;;;8.90;44.50;8.30;98465.00;;;;5116786;28;20310;-78
2022/04/18 07:33:47;;;;;;;0.77;0.77;;;8.90;43.90;8.40;98465.00;;;;5098632;28;20240;-78
2022/04/18 07:36:16;;;;;;;1.00;1.00;;;9.00;44.00;8.60;98461.00;;;;5116819;28;20206;-77
2022/04/18 07:38:52;;;;;;;0.60;0.60;;;9.20;44.10;8.70;98461.00;;;;5116644;28;20197;-79
2022/04/18 07:41:21;;;;;;;0.90;0.90;;;9.30;43.50;8.80;98459.00;;;;5116651;28;20201;-78
2022/04/18 07:43:49;;;;;;;0.73;0.73;;;9.40;43.80;8.90;98455.00;;;;5116660;28;20360;-78
2022/04/18 07:46:16;;;;;;;0.90;0.90;;;9.50;43.50;9.10;98457.00;;;;5116637;28;20210;-78
2022/04/18 07:48:45;;;;;;;0.93;0.93;;;9.60;42.30;9.20;98467.00;;;;5116496;28;20300;-78
2022/04/18 07:51:35;;;;;;;0.60;0.60;;;9.70;41.60;9.20;98461.00;;;;5098462;28;20202;-78
2022/04/18 07:54:04;;;;;;;0.70;0.70;;;9.80;41.80;9.40;98468.00;;;;5116338;28;20232;-78
2022/04/18 07:56:31;;;;;;;3.83;1.23;;;9.90;41.80;9.30;98445.00;;;;5116264;28;20200;-78
2022/04/18 07:59:00;;;;;;;1.00;0.93;;;10.00;41.10;9.50;98469.00;;;;5116450;28;20224;-78
2022/04/18 08:01:27;;;;;;;0.67;0.67;;;10.10;41.00;9.60;98454.00;;;;5116346;28;20225;-78
2022/04/18 08:03:54;;;;;;;0.90;0.90;;;10.10;40.80;9.70;98480.00;;;;5116245;28;20281;-77
2022/04/18 08:06:22;;;;;;;2.80;0.93;;;10.20;40.50;9.80;98464.00;;;;5116349;28;20203;-77
2022/04/18 08:08:51;;;;;;;1.07;1.07;;;10.40;39.90;9.90;98468.00;;;;5098005;28;20620;-78
2022/04/18 08:11:18;;;;;;;1.17;1.17;;;10.40;39.80;9.80;98468.00;;;;5115865;28;20214;-76
2022/04/18 08:13:49;;;;;;;1.03;1.03;;;10.50;40.60;10.00;98470.00;;;;5115940;28;20233;-78
2022/04/18 08:16:16;;;;;;;0.63;0.63;;;10.50;39.70;10.10;98474.00;;;;5098235;28;20257;-78
2022/04/18 08:18:46;;;;;;;1.03;1.03;;;10.60;38.80;10.10;98477.00;;;;5116067;28;20218;-76
2022/04/18 08:21:14;;;;;;;0.83;0.83;;;10.70;38.80;10.20;98473.00;;;;5098207;28;20190;-78
2022/04/18 08:23:42;;;;;;;0.70;0.70;;;10.80;38.10;10.20;98471.00;;;;5116042;28;20208;-78
2022/04/18 08:26:09;;;;;;;1.77;1.67;;;10.80;38.30;10.30;98465.00;;;;5098009;28;20270;-79
2022/04/18 08:28:39;;;;;;;0.87;0.87;;;10.90;38.10;10.40;98483.00;;;;5115925;28;20221;-78
2022/04/18 08:31:07;;;;;;;0.80;0.80;;;11.00;38.80;10.60;98477.00;;;;5115887;28;20258;-79
2022/04/18 08:33:34;;;;;;;0.70;0.70;;;11.10;37.80;10.60;98480.00;;;;5115584;28;20308;-77
2022/04/18 08:36:04;;;;;;;0.70;0.70;;;11.10;37.60;10.60;98480.00;;;;5115909;28;20562;-80
2022/04/18 08:38:33;;;;;;;0.60;0.60;;;11.20;37.20;10.70;98479.00;;;;5116270;28;20194;-79
2022/04/18 08:41:05;;;;;;;0.80;0.80;;;11.20;37.20;10.70;98485.00;;;;5115985;28;20208;-80
2022/04/18 08:43:31;;;;;;;1.07;1.07;;;11.30;37.60;10.80;98474.00;;;;5115874;28;20206;-77
2022/04/18 08:45:58;;;;;;;0.67;0.67;;;11.40;37.60;11.00;98473.00;;;;5115851;28;20194;-79
2022/04/18 08:53:59;;;;;;;1.37;1.27;;;11.80;37.20;11.40;98470.00;;;;5116986;28;20289;-79
2022/04/18 08:56:27;;;;;;;0.70;0.70;;;12.00;36.10;11.50;98477.00;;;;5116798;28;20294;-76
2022/04/18 08:58:54;;;;;;;1.00;1.00;;;12.00;36.20;11.50;98463.00;;;;5097877;28;20194;-78
2022/04/18 09:01:21;;;;;;;1.10;1.10;;;12.20;35.10;11.80;98471.00;;;;5115743;28;20226;-77
2022/04/18 09:03:48;;;;;;;1.10;1.00;;;12.30;35.90;11.70;98470.00;;;;5097535;28;20202;-79
2022/04/18 09:06:17;;;;;;;4.90;1.23;;;12.40;36.50;11.80;98460.00;;;;5097806;28;20556;-76
2022/04/18 09:08:51;;;;;;;0.60;0.60;;;12.50;35.40;12.00;98462.00;;;;5097088;28;20270;-79
2022/04/18 09:11:30;;;;;;;1.23;1.03;;;12.50;34.30;12.20;98460.00;;;;5115270;28;20225;-77
2022/04/18 09:14:05;;;;;;;1.30;1.30;;;12.70;34.00;12.30;98455.00;;;;5115301;28;20613;-78
2022/04/18 09:16:36;;;;;;;1.30;1.23;;;12.80;33.60;12.30;98440.00;;;;5114872;28;20271;-78
2022/04/18 09:19:05;;;;;;;0.87;0.87;;;12.90;33.60;12.50;98444.00;;;;5115091;28;20205;-77
2022/04/18 09:21:32;;;;;;;0.87;0.87;;;13.00;33.20;12.60;98451.00;;;;5114941;28;20682;-78
2022/04/18 09:23:59;;;;;;;1.07;1.07;;;13.10;33.20;12.80;98453.00;;;;5114930;28;20751;-77
2022/04/18 09:26:28;;;;;;;0.90;0.90;;;13.30;34.10;12.80;98443.00;;;;5114599;28;20629;-77
2022/04/18 09:29:05;;;;;;;1.50;1.40;;;13.30;32.80;12.80;98451.00;;;;5114902;28;20197;-78
2022/04/18 09:31:40;;;;;;;0.90;0.90;;;13.40;33.30;12.90;98444.00;;;;5115012;28;20195;-76
2022/04/18 09:34:07;;;;;;;0.70;0.70;;;13.50;32.50;13.00;98437.00;;;;5114817;28;20282;-76
2022/04/18 09:36:36;;;;;;;0.70;0.70;;;13.50;32.20;13.30;98437.00;;;;5096715;28;20642;-77
2022/04/18 09:39:03;;;;;;;1.00;1.00;;;13.70;31.80;13.30;98432.00;;;;5096799;28;20244;-78
2022/04/18 09:41:33;;;;;;;0.90;0.90;;;13.80;31.50;13.50;98431.00;;;;5114831;28;20271;-75
2022/04/18 09:43:59;;;;;;;1.17;1.17;;;14.00;30.00;13.80;98429.00;;;;5114583;28;20574;-75
2022/04/18 09:46:26;;;;;;;0.60;0.60;;;14.20;29.90;14.00;98430.00;;;;5114686;28;20621;-74
2022/04/18 09:49:01;;;;;;;0.70;0.70;;;14.40;30.30;14.00;98439.00;;;;5114536;28;20267;-75
2022/04/18 09:51:30;;;;;;;0.80;0.80;;;14.50;30.10;14.10;98427.00;;;;5114736;28;20197;-75
2022/04/18 09:53:58;;;;;;;0.50;0.50;;;14.60;29.40;14.30;98434.00;;;;5114442;28;20221;-75
2022/04/18 09:56:27;;;;;;;1.60;1.20;;;14.70;29.20;14.30;98435.00;;;;5096446;28;20221;-76
2022/04/18 09:58:58;;;;;;;0.80;0.80;;;14.90;28.70;14.40;98423.00;;;;5114494;28;20532;-75
2022/04/18 10:01:25;;;;;;;0.50;0.50;;;15.00;29.10;14.60;98426.00;;;;5114343;28;20297;-78
2022/04/18 10:03:54;;;;;;;0.60;0.60;;;15.10;28.70;14.80;98429.00;;;;5096326;28;20706;-76
2022/04/18 10:06:21;;;;;;;0.73;0.73;;;15.20;27.90;14.70;98419.00;;;;5096477;28;20492;-77
2022/04/18 10:08:50;;;;;;;0.70;0.70;;;15.30;27.70;14.80;98425.00;;;;5114290;28;20190;-75
2022/04/18 10:11:17;;;;;;;0.77;0.77;;;15.40;27.60;14.90;98420.00;;;;5114259;28;20213;-75
2022/04/18 10:13:44;;;;;;;0.77;0.77;;;15.40;27.80;15.00;98412.00;;;;5096208;28;20292;-75
2022/04/18 10:16:14;;;;;;;1.17;1.13;;;15.50;27.50;15.00;98416.00;;;;5114011;28;20585;-75
2022/04/18 10:18:48;;;;;;;0.63;0.63;;;15.60;26.90;15.20;98413.00;;;;5114106;28;20198;-75
2022/04/18 10:21:27;;;;;;;0.70;0.70;;;15.60;27.30;15.20;98406.00;;;;5113170;28;20189;-76
2022/04/18 10:24:52;;;;;;;0.60;0.60;;;15.70;25.70;15.20;98404.00;;;;5114013;28;20629;-76
2022/04/18 10:28:04;;;;;;;0.70;0.70;;;15.80;26.70;15.40;98408.00;;;;5114007;28;20246;-76
2022/04/18 10:30:36;;;;;;;0.73;0.70;;;16.00;27.00;15.60;98406.00;;;;5111994;28;20213;-76
2022/04/18 10:33:04;;;;;;;0.80;0.80;;;16.00;26.90;15.70;98403.00;;;;5113973;28;20664;-76
2022/04/18 10:35:31;;;;;;;0.80;0.73;;;16.20;25.90;15.70;98400.00;;;;5113831;28;20306;-76
2022/04/18 10:38:03;;;;;;;0.60;0.60;;;16.20;25.80;15.70;98388.00;;;;5113749;28;20648;-76
2022/04/18 10:40:40;;;;;;;0.70;0.70;;;16.30;26.20;15.90;98397.00;;;;5113979;28;20281;-76
2022/04/18 10:43:10;;;;;;;1.00;1.00;;;16.30;27.10;16.20;98396.00;;;;5113791;28;20273;-76
2022/04/18 10:45:37;;;;;;;1.10;1.10;;;16.60;28.20;16.30;98388.00;;;;5113767;28;20207;-77
2022/04/18 10:48:11;;;;;;;0.50;0.50;;;16.70;25.90;16.40;98371.00;;;;5095850;28;20194;-75
2022/04/18 10:50:41;;;;;;;1.00;1.00;;;16.80;26.50;16.40;98379.00;;;;5113608;28;20221;-76
2022/04/18 10:53:32;;;;;;;0.93;0.83;;;16.90;25.50;16.60;98379.00;;;;5095735;28;20205;-75
2022/04/18 10:56:13;;;;;;;1.23;1.13;;;17.10;24.90;16.80;98383.00;;;;5113683;28;20221;-76
2022/04/18 10:58:43;;;;;;;0.70;0.70;;;17.20;24.70;17.00;98383.00;;;;5095777;28;20297;-76
2022/04/18 11:01:10;;;;;;;0.80;0.80;;;17.40;25.30;17.20;98379.00;;;;5113539;28;20225;-75
2022/04/18 11:03:56;;;;;;;0.60;0.60;;;17.70;23.50;17.30;98376.00;;;;5113585;28;20255;-76
2022/04/18 11:07:00;;;;;;;2.27;1.27;;;17.70;24.20;17.10;98366.00;;;;5095762;28;20321;-75
2022/04/18 11:09:30;;;;;;;0.60;0.60;;;17.70;22.70;17.10;98369.00;;;;5014746;28;20205;-75
2022/04/18 11:12:05;;;;;;;0.50;0.50;;;17.60;23.50;17.20;98367.00;;;;5014564;28;20232;-76
2022/04/18 11:14:48;;;;;;;1.07;1.07;;;17.70;25.20;17.60;98370.00;;;;5077355;28;20578;-76
2022/04/18 11:17:31;;;;;;;0.83;0.80;;;18.00;23.90;17.90;98357.00;;;;5113436;28;20194;-75
2022/04/18 11:20:25;;;;;;;1.20;0.80;;;18.20;21.90;17.90;98359.00;;;;5095549;28;20210;-75
2022/04/18 11:23:21;;;;;;;0.77;0.77;;;18.30;23.80;18.00;98358.00;;;;5113361;28;20215;-76
2022/04/18 11:25:55;;;;;;;0.60;0.60;;;18.40;22.00;18.30;98337.00;;;;5113255;28;20209;-76